createdAt,value
2022-10-22T00:01:26.435Z,13.50
2022-10-22T00:03:55.650Z,13.44
2022-10-22T00:06:25.871Z,13.38
2022-10-22T00:08:55.850Z,13.31
2022-10-22T00:11:25.800Z,13.28
2022-10-22T00:13:57.180Z,13.22
2022-10-22T00:16:25.662Z,13.17
2022-10-22T00:18:55.661Z,13.14
2022-10-22T00:21:29.576Z,13.11
2022-10-22T00:23:55.666Z,13.10
2022-10-22T00:28:55.806Z,13.08
2022-10-22T00:33:55.645Z,13.06
2022-10-22T00:36:25.753Z,13.04
2022-10-22T00:38:55.566Z,13.00
2022-10-22T00:41:25.591Z,12.98
2022-10-22T00:43:57.575Z,12.94
2022-10-22T00:46:25.875Z,12.92
2022-10-22T00:48:57.866Z,12.88
2022-10-22T00:51:29.688Z,12.83
2022-10-22T00:54:02.052Z,12.79
2022-10-22T00:56:26.039Z,12.76
2022-10-22T00:58:59.636Z,12.73
2022-10-22T01:01:27.758Z,12.68
2022-10-22T01:03:55.701Z,12.66
2022-10-22T01:06:27.926Z,12.65
2022-10-22T01:09:08.061Z,12.62
2022-10-22T01:11:34.806Z,12.60
2022-10-22T01:14:03.378Z,12.58
2022-10-22T01:16:34.363Z,12.57
2022-10-22T01:19:07.196Z,12.56
2022-10-22T01:24:15.626Z,12.55
2022-10-22T01:26:36.995Z,12.58
2022-10-22T01:29:01.426Z,12.61
2022-10-22T01:31:30.527Z,12.64
2022-10-22T01:33:58.310Z,12.68
2022-10-22T01:36:28.539Z,12.70
2022-10-22T01:38:58.015Z,12.74
2022-10-22T01:41:26.719Z,12.77
2022-10-22T01:43:56.234Z,12.80
2022-10-22T01:46:27.905Z,12.84
2022-10-22T01:49:11.638Z,12.86
2022-10-22T01:51:40.574Z,12.88
2022-10-22T01:54:01.846Z,12.91
2022-10-22T01:56:39.948Z,12.93
2022-10-22T01:59:06.455Z,12.95
2022-10-22T02:01:31.246Z,12.97
2022-10-22T02:04:03.418Z,13.00
2022-10-22T02:06:28.953Z,13.02
2022-10-22T02:08:57.477Z,13.03
2022-10-22T02:11:25.949Z,13.06
2022-10-22T02:16:29.757Z,13.07
2022-10-22T02:18:58.567Z,13.09
2022-10-22T02:21:26.451Z,13.11
2022-10-22T02:23:55.928Z,13.10
2022-10-22T02:26:32.806Z,13.13
2022-10-22T02:29:02.671Z,13.15
2022-10-22T02:31:29.651Z,13.16
2022-10-22T02:33:58.404Z,13.18
2022-10-22T02:36:26.384Z,13.22
2022-10-22T02:38:56.006Z,13.25
2022-10-22T02:41:26.585Z,13.27
2022-10-22T02:43:55.983Z,13.29
2022-10-22T02:46:25.769Z,13.32
2022-10-22T02:48:55.762Z,13.34
2022-10-22T02:51:25.755Z,13.37
2022-10-22T02:53:55.655Z,13.39
2022-10-22T02:56:26.526Z,13.43
2022-10-22T03:01:25.718Z,13.46
2022-10-22T03:03:55.629Z,13.47
2022-10-22T03:08:57.012Z,13.53
2022-10-22T03:11:25.807Z,13.54
2022-10-22T03:13:55.651Z,13.55
2022-10-22T03:16:25.749Z,13.58
2022-10-22T03:18:55.926Z,13.60
2022-10-22T03:21:31.120Z,13.61
2022-10-22T03:23:56.105Z,13.60
2022-10-22T03:26:25.660Z,13.63
2022-10-22T03:28:55.918Z,13.64
2022-10-22T03:31:25.928Z,13.66
2022-10-22T03:33:55.786Z,13.64
2022-10-22T03:36:26.085Z,13.67
2022-10-22T03:38:55.722Z,13.68
2022-10-22T03:41:25.871Z,13.70
2022-10-22T03:43:56.666Z,13.68
2022-10-22T03:46:25.725Z,13.69
2022-10-22T03:51:26.746Z,13.70
2022-10-22T03:53:55.689Z,13.68
2022-10-22T03:56:25.952Z,13.66
2022-10-22T03:58:56.835Z,13.64
2022-10-22T04:01:26.715Z,13.63
2022-10-22T04:06:25.888Z,13.64
2022-10-22T04:08:55.779Z,13.61
2022-10-22T04:11:25.677Z,13.62
2022-10-22T04:13:55.776Z,13.61
2022-10-22T04:16:30.645Z,13.60
2022-10-22T04:21:25.965Z,13.63
2022-10-22T04:23:56.651Z,13.56
2022-10-22T04:26:26.073Z,13.59
2022-10-22T04:28:55.664Z,13.60
2022-10-22T04:31:25.985Z,13.56
2022-10-22T04:33:57.545Z,13.58
2022-10-22T04:36:27.762Z,13.55
2022-10-22T04:38:58.380Z,13.52
2022-10-22T04:41:28.106Z,13.56
2022-10-22T04:43:56.532Z,13.57
2022-10-22T04:48:57.188Z,13.59
2022-10-22T04:51:26.261Z,13.58
2022-10-22T04:53:55.841Z,13.53
2022-10-22T04:56:27.687Z,13.55
2022-10-22T04:58:57.961Z,13.54
2022-10-22T05:01:27.726Z,13.53
2022-10-22T05:03:57.803Z,13.54
2022-10-22T05:06:27.929Z,13.57
2022-10-22T05:08:58.155Z,13.58
2022-10-22T05:11:28.499Z,13.60
2022-10-22T05:13:57.054Z,13.52
2022-10-22T05:23:58.881Z,13.53
2022-10-22T05:26:27.475Z,13.52
2022-10-22T05:28:55.948Z,13.54
2022-10-22T05:31:27.965Z,13.56
2022-10-22T05:33:55.927Z,13.54
2022-10-22T05:36:26.203Z,13.50
2022-10-22T05:38:56.374Z,13.54
2022-10-22T05:41:27.342Z,13.57
2022-10-22T05:43:57.862Z,13.56
2022-10-22T05:46:27.295Z,13.52
2022-10-22T05:48:58.313Z,13.56
2022-10-22T05:53:58.169Z,13.58
2022-10-22T05:56:28.529Z,13.59
2022-10-22T05:58:56.053Z,13.61
2022-10-22T06:01:27.928Z,13.59
2022-10-22T06:03:58.147Z,13.58
2022-10-22T06:06:29.530Z,13.60
2022-10-22T06:09:00.636Z,13.56
2022-10-22T06:11:25.704Z,13.58
2022-10-22T06:16:28.297Z,13.59
2022-10-22T06:18:58.615Z,13.56
2022-10-22T06:21:25.870Z,13.57
2022-10-22T06:23:56.177Z,13.58
2022-10-22T06:28:56.432Z,13.54
2022-10-22T06:31:26.670Z,13.56
2022-10-22T06:33:56.067Z,13.52
2022-10-22T06:36:25.895Z,13.54
2022-10-22T06:38:56.335Z,13.55
2022-10-22T06:43:56.987Z,13.54
2022-10-22T06:46:26.373Z,13.55
2022-10-22T06:48:59.617Z,13.51
2022-10-22T06:51:26.681Z,13.55
2022-10-22T06:53:57.421Z,13.54
2022-10-22T06:56:27.679Z,13.56
2022-10-22T06:58:57.439Z,13.61
2022-10-22T07:01:28.964Z,13.65
2022-10-22T07:03:56.477Z,13.63
2022-10-22T07:06:27.988Z,13.65
2022-10-22T07:08:57.898Z,13.68
2022-10-22T07:11:27.381Z,13.69
2022-10-22T07:13:58.106Z,13.72
2022-10-22T07:16:29.664Z,13.75
2022-10-22T07:18:56.026Z,13.79
2022-10-22T07:21:25.808Z,13.80
2022-10-22T07:23:55.891Z,13.83
2022-10-22T07:26:29.586Z,13.86
2022-10-22T07:28:56.564Z,13.89
2022-10-22T07:31:25.770Z,13.88
2022-10-22T07:33:56.851Z,13.91
2022-10-22T07:36:25.890Z,13.93
2022-10-22T07:38:57.490Z,13.98
2022-10-22T07:41:27.684Z,14.01
2022-10-22T07:43:56.750Z,14.04
2022-10-22T07:46:26.788Z,14.14
2022-10-22T07:48:55.880Z,14.24
2022-10-22T07:51:25.929Z,14.27
2022-10-22T07:53:56.053Z,14.34
2022-10-22T07:56:25.723Z,14.45
2022-10-22T07:58:55.893Z,14.64
2022-10-22T08:01:25.941Z,14.82
2022-10-22T08:03:55.924Z,14.98
2022-10-22T08:06:25.782Z,15.12
2022-10-22T08:08:56.796Z,15.25
2022-10-22T08:11:26.067Z,15.38
2022-10-22T08:13:55.750Z,15.58
2022-10-22T08:16:25.808Z,15.79
2022-10-22T08:18:55.877Z,15.88
2022-10-22T08:21:26.343Z,15.99
2022-10-22T08:23:55.812Z,16.04
2022-10-22T08:26:25.802Z,16.13
2022-10-22T08:28:55.815Z,16.24
2022-10-22T08:31:25.831Z,16.30
2022-10-22T08:33:56.312Z,16.19
2022-10-22T08:36:25.751Z,16.21
2022-10-22T08:38:56.035Z,16.28
2022-10-22T08:41:25.933Z,16.27
2022-10-22T08:44:14.734Z,16.26
2022-10-22T08:48:59.456Z,16.36
2022-10-22T08:51:29.994Z,16.39
2022-10-22T08:54:09.719Z,16.43
2022-10-22T08:56:26.022Z,16.52
2022-10-22T08:59:02.546Z,16.58
2022-10-22T09:01:32.799Z,16.55
2022-10-22T09:03:59.399Z,16.64
2022-10-22T09:06:28.410Z,16.66
2022-10-22T09:08:57.789Z,16.68
2022-10-22T09:11:30.965Z,16.66
2022-10-22T09:13:57.067Z,16.62
2022-10-22T09:16:36.209Z,16.64
2022-10-22T09:19:05.525Z,16.59
2022-10-22T09:21:37.885Z,16.61
2022-10-22T09:24:03.494Z,16.57
2022-10-22T09:26:26.160Z,16.58
2022-10-22T09:28:59.223Z,16.54
2022-10-22T09:31:27.141Z,16.60
2022-10-22T09:33:57.269Z,16.62
2022-10-22T09:36:28.218Z,16.61
2022-10-22T09:38:59.574Z,16.72
2022-10-22T09:41:29.022Z,16.82
2022-10-22T09:43:57.101Z,16.84
2022-10-22T09:46:28.358Z,16.86
2022-10-22T09:49:02.987Z,16.85
2022-10-22T09:51:45.298Z,16.84
2022-10-22T09:53:57.540Z,16.73
2022-10-22T09:56:28.034Z,16.74
2022-10-22T09:58:57.072Z,16.71
2022-10-22T10:01:29.346Z,16.74
2022-10-22T10:04:04.562Z,16.79
2022-10-22T10:06:30.337Z,16.86
2022-10-22T10:08:56.236Z,16.93
2022-10-22T10:14:07.410Z,16.95
2022-10-22T10:16:36.612Z,17.03
2022-10-22T10:19:08.286Z,17.05
2022-10-22T10:21:34.719Z,17.10
2022-10-22T10:24:07.941Z,17.09
2022-10-22T10:26:34.288Z,17.22
2022-10-22T10:29:09.578Z,17.35
2022-10-22T10:31:37.628Z,17.39
2022-10-22T10:34:07.939Z,17.45
2022-10-22T10:36:34.931Z,17.46
2022-10-22T10:39:01.974Z,17.42
2022-10-22T10:41:37.830Z,17.36
2022-10-22T10:44:12.604Z,17.33
2022-10-22T10:46:36.262Z,17.21
2022-10-22T10:48:59.561Z,17.13
2022-10-22T10:51:36.909Z,17.03
2022-10-22T10:54:12.670Z,16.94
2022-10-22T10:56:39.030Z,16.87
2022-10-22T10:59:04.337Z,16.85
2022-10-22T11:01:33.755Z,16.79
2022-10-22T11:04:15.679Z,16.67
2022-10-22T11:06:30.747Z,16.65
2022-10-22T11:09:01.337Z,16.63
2022-10-22T11:11:32.115Z,16.67
2022-10-22T11:14:02.009Z,16.62
2022-10-22T11:16:30.744Z,16.63
2022-10-22T11:19:03.467Z,16.70
2022-10-22T11:21:31.463Z,16.69
2022-10-22T11:24:03.174Z,16.68
2022-10-22T11:26:36.251Z,16.67
2022-10-22T11:28:59.269Z,16.60
2022-10-22T11:31:27.073Z,16.55
2022-10-22T11:34:09.806Z,16.49
2022-10-22T11:36:28.230Z,16.46
2022-10-22T11:38:56.032Z,16.48
2022-10-22T11:41:30.067Z,16.44
2022-10-22T11:44:00.195Z,16.43
2022-10-22T11:46:33.913Z,16.42
2022-10-22T11:53:57.377Z,16.47
2022-10-22T11:56:36.455Z,16.53
2022-10-22T11:58:55.952Z,16.69
2022-10-22T12:01:28.833Z,16.77
2022-10-22T12:04:15.671Z,16.88
2022-10-22T12:06:27.033Z,16.93
2022-10-22T12:09:00.770Z,17.09
2022-10-22T12:11:34.315Z,17.16
2022-10-22T12:14:01.763Z,17.20
2022-10-22T12:16:37.775Z,17.33
2022-10-22T12:19:02.222Z,17.41
2022-10-22T12:21:26.062Z,17.47
2022-10-22T12:23:56.067Z,17.53
2022-10-22T12:26:28.333Z,17.55
2022-10-22T12:28:57.646Z,17.61
2022-10-22T12:36:27.771Z,17.67
2022-10-22T12:43:58.528Z,17.71
2022-10-22T12:46:27.359Z,17.79
2022-10-22T12:48:59.551Z,17.84
2022-10-22T12:51:27.418Z,17.93
2022-10-22T12:54:01.029Z,18.00
2022-10-22T12:56:30.546Z,18.06
2022-10-22T12:58:59.318Z,18.16
2022-10-22T13:01:28.314Z,18.17
2022-10-22T13:04:14.450Z,18.23
2022-10-22T13:06:27.600Z,18.34
2022-10-22T13:09:02.498Z,18.44
2022-10-22T13:11:31.346Z,18.72
2022-10-22T13:14:18.646Z,19.14
2022-10-22T13:16:29.079Z,19.58
2022-10-22T13:18:56.015Z,19.96
2022-10-22T13:21:28.839Z,20.32
2022-10-22T13:23:58.186Z,20.66
2022-10-22T13:26:32.364Z,20.92
2022-10-22T13:28:57.312Z,21.04
2022-10-22T13:31:27.874Z,21.25
2022-10-22T13:33:58.421Z,21.37
2022-10-22T13:36:26.037Z,21.31
2022-10-22T13:38:56.540Z,21.21
2022-10-22T13:41:29.914Z,20.98
2022-10-22T13:43:56.280Z,20.91
2022-10-22T13:46:26.696Z,20.51
2022-10-22T13:48:57.946Z,20.79
2022-10-22T13:51:32.377Z,20.78
2022-10-22T13:53:56.648Z,20.81
2022-10-22T13:56:26.159Z,20.70
2022-10-22T13:58:56.084Z,20.66
2022-10-22T14:04:00.879Z,20.65
2022-10-22T14:06:28.852Z,20.68
2022-10-22T14:08:59.178Z,20.67
2022-10-22T14:13:55.965Z,20.55
2022-10-22T14:16:27.819Z,20.33
2022-10-22T14:18:56.793Z,20.22
2022-10-22T14:21:29.385Z,20.15
2022-10-22T14:23:56.000Z,19.85
2022-10-22T14:26:30.373Z,19.80
2022-10-22T14:29:09.146Z,19.69
2022-10-22T14:31:26.758Z,19.41
2022-10-22T14:33:56.069Z,19.31
2022-10-22T14:36:27.003Z,19.14
2022-10-22T14:38:55.946Z,18.99
2022-10-22T14:41:28.120Z,18.85
2022-10-22T14:43:56.187Z,18.77
2022-10-22T14:46:26.017Z,18.69
2022-10-22T14:48:56.820Z,18.56
2022-10-22T14:51:25.944Z,18.45
2022-10-22T14:53:56.119Z,18.26
2022-10-22T14:56:26.078Z,18.16
2022-10-22T14:58:55.920Z,18.07
2022-10-22T15:01:25.976Z,18.03
2022-10-22T15:03:56.017Z,17.87
2022-10-22T15:06:26.194Z,17.69
2022-10-22T15:08:56.284Z,17.64
2022-10-22T15:11:26.162Z,17.60
2022-10-22T15:13:55.984Z,17.56
2022-10-22T15:16:26.525Z,17.49
2022-10-22T15:18:56.373Z,17.42
2022-10-22T15:21:25.947Z,17.36
2022-10-22T15:23:56.346Z,17.27
2022-10-22T15:26:26.872Z,17.18
2022-10-22T15:28:57.001Z,17.13
2022-10-22T15:31:45.812Z,17.03
2022-10-22T15:34:01.540Z,16.97
2022-10-22T15:36:26.096Z,16.95
2022-10-22T15:38:55.920Z,16.89
2022-10-22T15:41:26.185Z,16.80
2022-10-22T15:43:55.895Z,16.75
2022-10-22T15:46:27.010Z,16.65
2022-10-22T15:48:55.988Z,16.60
2022-10-22T15:51:26.025Z,16.56
2022-10-22T15:53:58.245Z,16.44
2022-10-22T15:56:27.644Z,16.37
2022-10-22T15:58:57.451Z,16.29
2022-10-22T16:01:26.752Z,16.22
2022-10-22T16:03:59.217Z,16.11
2022-10-22T16:08:59.120Z,16.08
2022-10-22T16:11:27.388Z,16.01
2022-10-22T16:13:57.725Z,15.92
2022-10-22T16:16:27.811Z,15.82
2022-10-22T16:18:56.481Z,15.75
2022-10-22T16:21:27.303Z,15.73
2022-10-22T16:23:56.404Z,15.65
2022-10-22T16:26:26.200Z,15.57
2022-10-22T16:28:57.520Z,15.51
2022-10-22T16:31:26.586Z,15.45
2022-10-22T16:33:57.106Z,15.38
2022-10-22T16:36:26.368Z,15.33
2022-10-22T16:38:55.975Z,15.24
2022-10-22T16:41:34.050Z,15.17
2022-10-22T16:43:56.020Z,15.11
2022-10-22T16:46:26.126Z,15.04
2022-10-22T16:48:56.295Z,14.95
2022-10-22T16:51:27.521Z,14.93
2022-10-22T16:53:56.539Z,14.84
2022-10-22T16:56:26.541Z,14.79
2022-10-22T16:58:56.991Z,14.78
2022-10-22T17:01:28.178Z,14.72
2022-10-22T17:03:58.439Z,14.67
2022-10-22T17:06:26.314Z,14.65
2022-10-22T17:11:29.058Z,14.62
2022-10-22T17:13:55.991Z,14.56
2022-10-22T17:16:26.005Z,14.53
2022-10-22T17:18:57.271Z,14.48
2022-10-22T17:21:25.990Z,14.39
2022-10-22T17:23:57.298Z,14.33
2022-10-22T17:26:26.190Z,14.30
2022-10-22T17:28:56.226Z,14.25
2022-10-22T17:31:27.735Z,14.17
2022-10-22T17:33:56.259Z,14.14
2022-10-22T17:39:00.885Z,14.13
2022-10-22T17:41:28.130Z,14.12
2022-10-22T17:46:28.226Z,14.11
2022-10-22T17:48:58.240Z,14.07
2022-10-22T17:51:28.137Z,14.03
2022-10-22T17:53:56.859Z,14.00
2022-10-22T17:56:28.862Z,13.92
2022-10-22T17:58:56.380Z,13.90
2022-10-22T18:01:28.277Z,13.89
2022-10-22T18:04:00.028Z,13.88
2022-10-22T18:06:26.958Z,13.86
2022-10-22T18:08:56.408Z,13.83
2022-10-22T18:11:27.371Z,13.81
2022-10-22T18:13:56.873Z,13.78
2022-10-22T18:16:26.092Z,13.76
2022-10-22T18:18:57.379Z,13.74
2022-10-22T18:21:27.694Z,13.71
2022-10-22T18:23:58.066Z,13.67
2022-10-22T18:26:27.091Z,13.64
2022-10-22T18:28:56.585Z,13.59
2022-10-22T18:31:27.345Z,13.57
2022-10-22T18:33:57.179Z,13.53
2022-10-22T18:36:26.713Z,13.49
2022-10-22T18:38:58.434Z,13.46
2022-10-22T18:41:27.372Z,13.43
2022-10-22T18:43:58.317Z,13.46
2022-10-22T18:46:27.854Z,13.45
2022-10-22T18:48:57.513Z,13.44
2022-10-22T18:51:29.667Z,13.41
2022-10-22T18:56:26.493Z,13.42
2022-10-22T18:58:56.089Z,13.45
2022-10-22T19:08:56.297Z,13.44
2022-10-22T19:11:26.644Z,13.42
2022-10-22T19:16:26.332Z,13.43
2022-10-22T19:18:59.956Z,13.45
2022-10-22T19:21:26.961Z,13.41
2022-10-22T19:26:28.756Z,13.43
2022-10-22T19:28:58.199Z,13.41
2022-10-22T19:33:56.898Z,13.38
2022-10-22T19:36:26.932Z,13.39
2022-10-22T19:38:57.293Z,13.37
2022-10-22T19:41:28.694Z,13.33
2022-10-22T19:43:57.401Z,13.30
2022-10-22T19:46:28.365Z,13.31
2022-10-22T19:48:56.223Z,13.29
2022-10-22T19:51:28.938Z,13.25
2022-10-22T19:53:58.415Z,13.19
2022-10-22T19:56:27.000Z,13.20
2022-10-22T19:58:57.398Z,13.17
2022-10-22T20:01:26.296Z,13.14
2022-10-22T20:03:56.140Z,13.11
2022-10-22T20:06:26.987Z,13.08
2022-10-22T20:08:56.522Z,13.06
2022-10-22T20:18:59.742Z,13.02
2022-10-22T20:21:26.470Z,12.99
2022-10-22T20:26:27.251Z,12.98
2022-10-22T20:28:57.063Z,12.96
2022-10-22T20:31:28.607Z,12.95
2022-10-22T20:33:57.882Z,12.93
2022-10-22T20:36:28.531Z,12.92
2022-10-22T20:38:59.727Z,12.88
2022-10-22T20:43:56.686Z,12.89
2022-10-22T20:46:28.326Z,12.88
2022-10-22T20:51:26.160Z,12.87
2022-10-22T20:53:56.349Z,12.86
2022-10-22T20:56:27.316Z,12.85
2022-10-22T20:59:03.510Z,12.80
2022-10-22T21:01:27.600Z,12.79
2022-10-22T21:03:56.022Z,12.77
2022-10-22T21:11:26.206Z,12.74
2022-10-22T21:13:56.296Z,12.73
2022-10-22T21:16:26.373Z,12.72
2022-10-22T21:18:56.277Z,12.69
2022-10-22T21:21:26.744Z,12.67
2022-10-22T21:23:56.247Z,12.69
2022-10-22T21:26:26.385Z,12.67
2022-10-22T21:28:56.228Z,12.69
2022-10-22T21:31:26.883Z,12.68
2022-10-22T21:33:56.300Z,12.66
2022-10-22T21:36:26.340Z,12.65
2022-10-22T21:38:56.398Z,12.62
2022-10-22T21:41:26.111Z,12.59
2022-10-22T21:43:57.298Z,12.55
2022-10-22T21:46:27.248Z,12.53
2022-10-22T21:48:58.289Z,12.51
2022-10-22T21:51:26.801Z,12.50
2022-10-22T21:53:56.383Z,12.46
2022-10-22T21:56:28.630Z,12.43
2022-10-22T21:58:56.289Z,12.41
2022-10-22T22:01:26.947Z,12.39
2022-10-22T22:03:56.762Z,12.36
2022-10-22T22:06:29.529Z,12.35
2022-10-22T22:08:56.364Z,12.33
2022-10-22T22:11:27.770Z,12.31
2022-10-22T22:13:57.225Z,12.30
2022-10-22T22:18:58.174Z,12.27
2022-10-22T22:21:26.766Z,12.25
2022-10-22T22:23:57.111Z,12.27
2022-10-22T22:28:57.533Z,12.28
2022-10-22T22:31:28.482Z,12.27
2022-10-22T22:36:27.118Z,12.26
2022-10-22T22:38:56.156Z,12.24
2022-10-22T22:41:26.197Z,12.19
2022-10-22T22:43:56.321Z,12.16
2022-10-22T22:46:26.151Z,12.13
2022-10-22T22:48:56.392Z,12.09
2022-10-22T22:51:27.547Z,12.04
2022-10-22T22:53:56.755Z,12.01
2022-10-22T22:56:28.072Z,11.97
2022-10-22T22:58:57.396Z,11.92
2022-10-22T23:01:29.083Z,11.89
2022-10-22T23:03:58.868Z,11.86
2022-10-22T23:06:28.823Z,11.84
2022-10-22T23:08:57.963Z,11.82
2022-10-22T23:11:27.189Z,11.79
2022-10-22T23:13:58.903Z,11.76
2022-10-22T23:16:28.961Z,11.74
2022-10-22T23:21:27.934Z,11.72
2022-10-22T23:23:59.225Z,11.69
2022-10-22T23:26:29.091Z,11.67
2022-10-22T23:31:26.456Z,11.65
2022-10-22T23:33:56.543Z,11.64
2022-10-22T23:38:56.455Z,11.62
2022-10-22T23:41:26.158Z,11.60
2022-10-22T23:43:56.235Z,11.56
2022-10-22T23:46:26.189Z,11.53
2022-10-22T23:51:26.783Z,11.52
2022-10-22T23:53:58.696Z,11.50
2022-10-22T23:56:26.683Z,11.47
2022-10-22T23:58:57.062Z,11.44
